Cheetham Salt Works, South Australia

2:10 PM ACST on August 27, 2016 (GMT +0930)
Ardrossan Paragliding | | Change Station

Elev 118 ft 34.41 °S, 137.92 °E | Updated 4 seconds ago

Mostly Cloudy
Mostly Cloudy
64.2 °F
Feels Like 64.2 °F
N
13.6
Wind Variable Wind from WNW
Gusts 17.5 mph

Today
High -- | Low -- °F
--% Chance of Precip.
Yesterday
High -- | Low -- °F
Precip. -- in
Pressure 30.09 in
Visibility 6.2 miles
Clouds Few 4800 ft
Mostly Cloudy 25000 ft
Dew Point 42 °F
Humidity 44%
Rainfall 0.00 in
Snow Depth Not available.
6:43 AM 5:56 PM
Waning Crescent, 28% visible
METAR YPAD 270400Z 33018KT 9999 FEW048 BKN250 16/05 Q1019 NOSIG
Pressure 30.09 in
Visibility 6.2 miles
Clouds Few 4800 ft
Mostly Cloudy 25000 ft
Dew Point 42 °F
Humidity 44%
Rainfall 0.00 in
Snow Depth Not available.
6:43 AM 5:56 PM
Waning Crescent, 28% visible
METAR YPAD 270400Z 33018KT 9999 FEW048 BKN250 16/05 Q1019 NOSIG

10-Day Weather Forecast

Almanac

Astronomy

Aug. 27, 2016 Rise Set
Actual Time
Civil Twilight
Nautical Twilight
Astronomical Twilight
Moon
Length of Visible Light
Length of Day
Tomorrow will be .
, % of the Moon is Illuminated

Today's Extremes

Country Highs Country Lows

Community

WunderPhotos

Upload Photos

1,935,299 photos uploaded!

WunderBlog® & News

Nearby

Air Quality

  Air Quality AQ Index Pollutant
Not available.

Snow Depth

Station Depth Elevation

Earthquake Activity

City Distance Mag. Time & Date
Minimum magnitude displayed is 2.5.

Coastal Water Temperatures

Place Temperature

Stations

Nearby Weather Stations

Station Location Temp. Windchill Dew Point Humidity Wind Precip. Elev Updated Type